Time;durP1;ratioP1;P1;durP2;ratioP2;P2;SDS_P1;SDS_P2;PMS_P1;PMS_P2;Temp;Humidity;BMP_temperature;BMP_pressure;BME280_temperature;BME280_humidity;BME280_pressure;Samples;Min_cycle;Max_cycle;Signal;HPM_P1;HPM_P2
2023/11/13 00:01:13;;;;;;;23.95;9.43;;;;;;;3.81;77.04;98213.50;5083567;28;20188;-81
2023/11/13 00:03:39;;;;;;;23.77;10.57;;;;;;;3.84;76.83;98228.09;5067622;28;20114;-81
2023/11/13 00:06:04;;;;;;;23.58;10.18;;;;;;;3.74;77.14;98210.13;5076482;28;20024;-81
2023/11/13 00:08:30;;;;;;;45.05;15.85;;;;;;;3.75;77.49;98214.41;5067253;28;21027;-81
2023/11/13 00:10:56;;;;;;;37.85;15.02;;;;;;;3.77;77.46;98218.44;5067326;28;20028;-80
2023/11/13 00:13:22;;;;;;;34.03;13.93;;;;;;;3.64;77.67;98197.47;5084832;28;20169;-81
2023/11/13 00:15:47;;;;;;;27.65;9.88;;;;;;;3.74;77.64;98208.31;5084862;28;20119;-81
2023/11/13 00:18:13;;;;;;;23.35;10.32;;;;;;;3.67;77.50;98201.47;5081057;28;20040;-81
2023/11/13 00:20:38;;;;;;;18.95;8.52;;;;;;;3.54;77.35;98183.16;5065276;28;20036;-81
2023/11/13 00:23:06;;;;;;;16.40;7.47;;;;;;;3.68;77.65;98179.34;5081831;28;20161;-81
2023/11/13 00:25:31;;;;;;;15.52;6.97;;;;;;;3.68;76.93;98188.09;5081591;28;20027;-81
2023/11/13 00:27:58;;;;;;;12.60;6.20;;;;;;;3.61;77.50;98176.78;5084919;28;20093;-81
2023/11/13 00:30:23;;;;;;;12.63;7.05;;;;;;;3.61;77.42;98171.50;5084361;28;20041;-80
2023/11/13 00:32:49;;;;;;;11.27;6.82;;;;;;;3.58;76.58;98150.06;5071262;28;20037;-81
2023/11/13 00:35:14;;;;;;;11.43;6.07;;;;;;;3.58;76.59;98155.31;5071848;28;20028;-81
2023/11/13 00:37:40;;;;;;;8.77;4.68;;;;;;;3.50;77.22;98152.97;5074566;28;20550;-81
2023/11/13 00:40:06;;;;;;;9.23;5.43;;;;;;;3.51;77.33;98167.78;5088032;28;20085;-80
2023/11/13 00:42:31;;;;;;;8.98;5.60;;;;;;;3.46;77.56;98165.00;5068125;28;20035;-81
2023/11/13 00:44:56;;;;;;;13.15;6.80;;;;;;;3.45;77.61;98166.03;5057204;28;20031;-81
2023/11/13 00:47:22;;;;;;;14.75;7.00;;;;;;;3.55;76.87;98168.94;5067489;28;20024;-81
2023/11/13 00:49:47;;;;;;;11.80;7.47;;;;;;;3.48;77.30;98165.56;5088617;28;20062;-81
2023/11/13 00:52:13;;;;;;;12.63;8.27;;;;;;;3.47;77.28;98164.75;5089534;28;20055;-81
2023/11/13 00:54:38;;;;;;;12.25;8.18;;;;;;;3.45;76.90;98145.72;5084328;28;20081;-81
2023/11/13 00:57:04;;;;;;;12.63;7.10;;;;;;;3.40;76.77;98152.69;5087798;28;20042;-81
2023/11/13 00:59:29;;;;;;;11.63;6.90;;;;;;;3.30;76.60;98150.53;5076332;28;20047;-81
2023/11/13 01:01:55;;;;;;;13.85;8.10;;;;;;;3.25;77.11;98168.06;5070593;28;20059;-81
2023/11/13 01:04:21;;;;;;;17.98;7.22;;;;;;;3.24;76.80;98163.78;5085672;28;20037;-81
2023/11/13 01:06:48;;;;;;;11.93;7.63;;;;;;;3.26;76.94;98146.75;5048632;28;20032;-81
2023/11/13 01:09:14;;;;;;;11.35;6.45;;;;;;;3.30;77.08;98149.75;5070707;28;20035;-81
2023/11/13 01:11:39;;;;;;;13.95;7.50;;;;;;;3.35;76.73;98163.88;5052493;28;20029;-81
2023/11/13 01:14:04;;;;;;;12.27;7.65;;;;;;;2.88;76.81;98159.28;5070642;28;20035;-80
2023/11/13 01:16:30;;;;;;;11.10;7.45;;;;;;;2.61;78.93;98168.41;5072467;28;20106;-80
2023/11/13 01:18:55;;;;;;;12.00;7.20;;;;;;;2.79;77.51;98179.84;5063523;28;20120;-80
2023/11/13 01:21:24;;;;;;;10.77;6.43;;;;;;;2.90;76.88;98157.25;5087200;28;20062;-81
2023/11/13 01:23:49;;;;;;;10.57;6.43;;;;;;;3.19;77.13;98161.03;5085097;28;20480;-81
2023/11/13 01:26:15;;;;;;;11.00;6.95;;;;;;;3.19;76.32;98156.53;5073547;28;20024;-81
2023/11/13 01:28:40;;;;;;;10.13;6.20;;;;;;;3.16;76.43;98156.19;5080844;28;20021;-81
2023/11/13 01:31:07;;;;;;;10.65;6.25;;;;;;;3.08;76.47;98159.09;5085141;28;20036;-80
2023/11/13 01:33:32;;;;;;;8.25;6.13;;;;;;;3.04;76.31;98162.16;5082237;28;20133;-81
2023/11/13 01:35:57;;;;;;;15.63;6.88;;;;;;;2.97;76.75;98156.16;5089270;28;20028;-81
2023/11/13 01:38:23;;;;;;;12.10;6.00;;;;;;;3.08;76.69;98164.38;5068328;28;20036;-80
2023/11/13 01:40:51;;;;;;;10.30;6.32;;;;;;;3.17;76.82;98155.94;5082913;28;20032;-81
2023/11/13 01:43:21;;;;;;;9.80;6.10;;;;;;;3.07;76.82;98166.19;5089199;28;20028;-80
2023/11/13 01:45:51;;;;;;;8.82;5.82;;;;;;;2.35;77.82;98150.16;5080341;28;20024;-79
2023/11/13 01:48:17;;;;;;;14.75;7.85;;;;;;;2.66;78.33;98164.13;5086882;28;20024;-81
2023/11/13 01:50:43;;;;;;;11.80;6.82;;;;;;;2.88;77.82;98154.81;5086656;28;20109;-80
2023/11/13 01:53:09;;;;;;;12.05;5.85;;;;;;;2.93;78.74;98165.50;5067075;28;20052;-80
2023/11/13 01:55:35;;;;;;;12.45;6.82;;;;;;;2.81;78.68;98167.25;5082710;28;20032;-81
2023/11/13 01:58:00;;;;;;;13.85;6.78;;;;;;;2.82;79.29;98154.84;5067155;28;20035;-80
2023/11/13 02:00:26;;;;;;;15.38;7.00;;;;;;;2.56;79.87;98149.81;5084543;28;20059;-80
2023/11/13 02:02:53;;;;;;;12.20;5.70;;;;;;;2.83;79.67;98145.94;5067317;28;20032;-80
2023/11/13 02:05:19;;;;;;;8.73;6.68;;;;;;;3.02;78.69;98145.75;5085894;28;20046;-80
2023/11/13 02:07:46;;;;;;;10.15;6.32;;;;;;;2.90;78.85;98142.25;5075436;28;20036;-81
2023/11/13 02:10:13;;;;;;;13.95;6.30;;;;;;;3.10;79.23;98142.06;5077604;28;20033;-81
2023/11/13 02:12:39;;;;;;;10.05;6.20;;;;;;;3.08;78.99;98135.38;5077639;28;20070;-80
2023/11/13 02:15:07;;;;;;;9.00;5.88;;;;;;;2.96;79.03;98130.81;5090040;28;20043;-80
2023/11/13 02:17:33;;;;;;;14.68;5.82;;;;;;;3.10;79.38;98128.06;5085874;28;20084;-80
2023/11/13 02:19:58;;;;;;;12.85;7.10;;;;;;;3.09;79.48;98123.78;5070482;28;20384;-80
2023/11/13 02:22:23;;;;;;;11.70;6.07;;;;;;;3.08;79.31;98122.19;5086253;28;20020;-80
2023/11/13 02:24:50;;;;;;;13.65;7.40;;;;;;;2.94;79.99;98117.06;5067067;28;20381;-81
2023/11/13 02:27:18;;;;;;;13.15;6.10;;;;;;;3.04;79.45;98114.72;5087833;28;20024;-80
2023/11/13 02:29:44;;;;;;;12.63;6.43;;;;;;;3.19;79.00;98113.56;5075620;28;20028;-81
2023/11/13 02:32:09;;;;;;;10.05;6.13;;;;;;;3.06;79.91;98116.34;5051907;28;20769;-80
2023/11/13 02:34:34;;;;;;;11.10;5.97;;;;;;;3.15;79.82;98117.66;5073619;28;20024;-80
2023/11/13 02:37:00;;;;;;;13.63;6.30;;;;;;;3.07;79.52;98110.03;5067015;28;20047;-80
2023/11/13 02:39:25;;;;;;;13.85;6.68;;;;;;;3.01;80.16;98127.53;5054224;28;20035;-80
2023/11/13 02:41:51;;;;;;;8.88;5.75;;;;;;;2.89;80.54;98124.81;5085014;28;20040;-80
2023/11/13 02:44:17;;;;;;;10.15;6.00;;;;;;;2.73;80.43;98106.91;5081181;28;20044;-80
2023/11/13 02:46:42;;;;;;;14.57;6.65;;;;;;;2.82;80.47;98110.06;5078569;28;20038;-80
2023/11/13 02:49:08;;;;;;;11.10;7.30;;;;;;;3.14;79.27;98100.22;5068866;28;20127;-80
2023/11/13 02:51:34;;;;;;;16.08;7.18;;;;;;;3.15;78.90;98101.81;5069417;28;20025;-80
2023/11/13 02:53:59;;;;;;;10.82;6.45;;;;;;;3.05;79.54;98102.34;5084099;28;20078;-81
2023/11/13 02:56:25;;;;;;;14.10;7.40;;;;;;;2.87;79.97;98097.88;5079551;28;20437;-80
2023/11/13 02:58:50;;;;;;;11.90;7.30;;;;;;;2.93;80.14;98097.00;5076472;28;20035;-80
2023/11/13 03:01:17;;;;;;;11.50;6.60;;;;;;;2.91;80.65;98106.94;5081406;28;20036;-81
2023/11/13 03:03:43;;;;;;;12.38;6.07;;;;;;;2.81;80.37;98101.38;5081316;28;20506;-81
2023/11/13 03:06:09;;;;;;;10.30;6.95;;;;;;;3.09;79.50;98094.81;5082787;28;20020;-80
2023/11/13 03:08:34;;;;;;;12.07;8.32;;;;;;;2.98;79.57;98091.88;5065620;28;20449;-80
2023/11/13 03:11:00;;;;;;;15.05;7.88;;;;;;;2.99;79.38;98088.19;5086034;28;20025;-80
2023/11/13 03:13:25;;;;;;;12.73;7.15;;;;;;;3.03;78.93;98086.75;5085346;28;20027;-80
2023/11/13 03:15:51;;;;;;;18.77;8.23;;;;;;;2.69;79.14;98089.91;5077355;28;20032;-80
2023/11/13 03:18:16;;;;;;;11.13;7.20;;;;;;;2.28;82.46;98090.47;5072923;28;20028;-80
2023/11/13 03:20:44;;;;;;;14.05;7.53;;;;;;;2.76;80.45;98071.41;5084025;28;20036;-80
2023/11/13 03:23:12;;;;;;;15.38;7.32;;;;;;;2.96;79.41;98083.38;5082290;28;20054;-80
2023/11/13 03:25:38;;;;;;;12.48;7.60;;;;;;;3.00;79.17;98092.47;5085715;28;20035;-80
2023/11/13 03:28:03;;;;;;;13.43;6.97;;;;;;;3.01;79.13;98091.41;5064268;28;20040;-81
2023/11/13 03:30:29;;;;;;;12.70;7.32;;;;;;;2.95;78.75;98075.69;5071801;28;20036;-81
2023/11/13 03:32:54;;;;;;;12.38;6.97;;;;;;;3.08;78.80;98085.31;5085285;28;20032;-81
2023/11/13 03:35:20;;;;;;;13.45;7.03;;;;;;;2.96;79.23;98088.66;5103285;28;20549;-80
2023/11/13 03:37:46;;;;;;;12.60;6.55;;;;;;;2.96;79.17;98085.22;5050601;28;20523;-81
2023/11/13 03:40:12;;;;;;;10.93;5.95;;;;;;;3.00;78.72;98095.09;5081653;28;20036;-81
2023/11/13 03:42:38;;;;;;;11.23;6.97;;;;;;;3.04;78.94;98100.72;5082008;28;20658;-81
2023/11/13 03:45:04;;;;;;;10.85;6.28;;;;;;;3.04;78.79;98104.19;5079274;28;20032;-80
2023/11/13 03:47:29;;;;;;;11.55;7.22;;;;;;;2.94;79.29;98080.16;5088853;28;20040;-80
2023/11/13 03:49:55;;;;;;;13.07;6.28;;;;;;;3.01;78.89;98096.69;5071517;28;20023;-81
2023/11/13 03:52:21;;;;;;;10.75;6.50;;;;;;;3.06;78.75;98096.03;5083581;28;20498;-80
2023/11/13 03:54:47;;;;;;;9.70;6.30;;;;;;;2.92;78.79;98097.22;5080656;28;20023;-80
2023/11/13 03:57:12;;;;;;;10.38;6.78;;;;;;;2.91;78.86;98077.94;5069143;28;20468;-80
2023/11/13 03:59:38;;;;;;;12.95;7.45;;;;;;;3.07;78.79;98092.41;5085587;28;20483;-81
2023/11/13 04:02:03;;;;;;;12.82;6.90;;;;;;;3.00;79.09;98084.56;5069172;28;20070;-81
2023/11/13 04:04:29;;;;;;;8.77;6.38;;;;;;;2.98;78.42;98081.34;5083414;28;20024;-80
2023/11/13 04:06:54;;;;;;;11.07;6.63;;;;;;;3.02;78.65;98076.41;5065713;28;20496;-81
2023/11/13 04:09:20;;;;;;;12.25;6.82;;;;;;;3.04;79.09;98069.91;5081688;28;20308;-81
2023/11/13 04:11:46;;;;;;;12.32;6.78;;;;;;;3.01;79.25;98083.50;5073571;28;20175;-81
2023/11/13 04:14:11;;;;;;;12.70;6.93;;;;;;;3.03;79.60;98083.31;5083180;28;20717;-81
2023/11/13 04:16:37;;;;;;;10.80;6.85;;;;;;;2.96;79.77;98078.13;5091252;28;20036;-81
2023/11/13 04:19:02;;;;;;;13.18;6.85;;;;;;;3.02;79.41;98086.97;5081434;28;20028;-81
2023/11/13 04:21:31;;;;;;;14.25;8.43;;;;;;;3.12;80.19;98095.19;5089770;28;20058;-80
2023/11/13 04:23:58;;;;;;;17.48;8.07;;;;;;;3.19;80.14;98074.81;5086967;28;20032;-81
2023/11/13 04:26:23;;;;;;;17.35;9.23;;;;;;;3.09;80.48;98086.88;5058861;28;20020;-81
2023/11/13 04:28:49;;;;;;;15.10;9.32;;;;;;;3.28;80.77;98099.03;5088897;28;20032;-80
2023/11/13 04:31:15;;;;;;;23.02;10.32;;;;;;;3.13;80.71;98082.78;5057907;28;20460;-80
2023/11/13 04:33:41;;;;;;;13.02;8.55;;;;;;;3.32;79.96;98082.56;5073110;28;20028;-80
2023/11/13 04:36:06;;;;;;;20.38;9.68;;;;;;;3.27;80.68;98095.63;5084045;28;20086;-80
2023/11/13 04:38:36;;;;;;;20.58;9.38;;;;;;;3.43;79.86;98083.69;5085078;28;20052;-80
2023/11/13 04:41:01;;;;;;;23.08;9.65;;;;;;;3.28;80.57;98083.22;5070418;28;20559;-81
2023/11/13 04:43:27;;;;;;;14.95;10.07;;;;;;;3.39;80.08;98100.94;5088246;28;20115;-80
2023/11/13 04:45:52;;;;;;;18.27;8.73;;;;;;;3.38;80.36;98108.06;5084998;28;20055;-81
2023/11/13 04:48:18;;;;;;;12.50;8.23;;;;;;;3.38;80.61;98112.53;5085042;28;20067;-81
2023/11/13 04:50:43;;;;;;;15.75;9.40;;;;;;;3.37;80.34;98103.00;5079788;28;20035;-81
2023/11/13 04:53:08;;;;;;;16.95;9.32;;;;;;;3.52;79.93;98090.25;5081652;28;20028;-81
2023/11/13 04:55:34;;;;;;;18.92;9.10;;;;;;;3.47;79.85;98075.06;5079732;28;20031;-81
2023/11/13 04:57:59;;;;;;;15.40;9.02;;;;;;;3.47;80.02;98085.63;5047434;28;20050;-81
2023/11/13 05:00:25;;;;;;;15.88;9.63;;;;;;;3.40;80.56;98089.38;5067746;28;20404;-81
2023/11/13 05:02:51;;;;;;;17.60;9.43;;;;;;;3.40;81.09;98106.03;5079803;28;20402;-81
2023/11/13 05:05:16;;;;;;;19.40;10.13;;;;;;;3.39;80.79;98114.13;5077250;28;20023;-81
2023/11/13 05:07:42;;;;;;;21.98;10.38;;;;;;;3.36;81.47;98102.22;5079762;28;20119;-81
2023/11/13 05:10:08;;;;;;;17.83;9.75;;;;;;;3.66;80.48;98094.34;5084813;28;20040;-80
2023/11/13 05:12:33;;;;;;;20.48;11.27;;;;;;;3.60;80.35;98082.81;5081375;28;20032;-81
2023/11/13 05:14:59;;;;;;;16.60;9.95;;;;;;;3.68;79.99;98081.72;5052725;28;20044;-81
2023/11/13 05:17:24;;;;;;;16.98;10.52;;;;;;;3.63;80.06;98082.38;5071503;28;20024;-81
2023/11/13 05:19:50;;;;;;;20.00;9.95;;;;;;;3.64;80.73;98081.38;5090899;28;20040;-81
2023/11/13 05:22:15;;;;;;;16.83;10.60;;;;;;;3.68;80.03;98071.97;5087237;28;20078;-81
2023/11/13 05:24:41;;;;;;;18.15;10.52;;;;;;;3.57;81.31;98069.28;5081760;28;20036;-81
2023/11/13 05:27:06;;;;;;;20.52;11.10;;;;;;;3.59;81.67;98077.78;5072564;28;20033;-81
2023/11/13 05:29:32;;;;;;;17.95;10.50;;;;;;;3.61;80.80;98086.28;5069542;28;20051;-81
2023/11/13 05:31:57;;;;;;;16.05;10.35;;;;;;;3.58;81.93;98092.00;5086156;28;20031;-81
2023/11/13 05:34:24;;;;;;;16.95;10.77;;;;;;;3.61;81.35;98081.00;5052070;28;20067;-82
2023/11/13 05:36:50;;;;;;;22.40;10.50;;;;;;;3.68;81.31;98077.25;5080059;28;20025;-81
2023/11/13 05:39:15;;;;;;;20.80;11.10;;;;;;;3.60;80.97;98069.63;5080950;28;20088;-81
2023/11/13 05:41:41;;;;;;;22.30;12.35;;;;;;;3.71;81.00;98065.47;5083474;28;20111;-82
2023/11/13 05:44:06;;;;;;;17.35;10.55;;;;;;;3.83;80.71;98074.22;5071049;28;20059;-82
2023/11/13 05:46:32;;;;;;;13.45;10.02;;;;;;;3.76;81.14;98070.84;5085284;28;20840;-81
2023/11/13 05:48:59;;;;;;;15.02;10.20;;;;;;;3.85;80.58;98069.50;5080428;28;20044;-81
2023/11/13 05:51:24;;;;;;;16.75;11.13;;;;;;;3.84;81.26;98062.63;5083889;28;20102;-81
2023/11/13 05:53:50;;;;;;;16.60;10.70;;;;;;;3.80;81.22;98043.78;5075057;28;20085;-81
2023/11/13 05:56:16;;;;;;;19.65;10.20;;;;;;;3.82;80.71;98029.56;5087215;28;21537;-81
2023/11/13 05:58:42;;;;;;;21.30;11.38;;;;;;;3.59;82.34;98030.28;5087061;28;20031;-80
2023/11/13 06:01:08;;;;;;;18.40;10.50;;;;;;;3.75;81.89;98029.66;5091264;28;20043;-81
2023/11/13 06:03:33;;;;;;;26.13;13.02;;;;;;;3.79;81.18;98018.44;5088451;28;20116;-81
2023/11/13 06:05:59;;;;;;;16.27;10.50;;;;;;;3.98;80.34;98019.16;5093728;28;20055;-81
2023/11/13 06:08:24;;;;;;;18.45;11.05;;;;;;;3.89;80.68;98023.16;5093303;28;20036;-81
2023/11/13 06:10:49;;;;;;;22.38;11.30;;;;;;;3.92;80.91;98020.06;5075342;28;20055;-81
2023/11/13 06:13:15;;;;;;;21.45;11.65;;;;;;;3.89;80.69;98009.94;5058781;28;20118;-81
2023/11/13 06:15:40;;;;;;;18.77;10.80;;;;;;;3.88;81.25;98012.81;5091868;28;20063;-81
2023/11/13 06:18:07;;;;;;;20.55;11.25;;;;;;;3.92;80.68;98009.50;5091923;28;20483;-81
2023/11/13 06:20:33;;;;;;;18.83;11.52;;;;;;;3.84;81.16;98001.94;5092848;28;20027;-81
2023/11/13 06:23:01;;;;;;;19.60;11.15;;;;;;;3.57;81.01;97966.41;5059011;28;20032;-81
2023/11/13 06:25:26;;;;;;;22.30;12.30;;;;;;;3.97;80.90;98019.41;5093688;28;20034;-81
2023/11/13 06:27:56;;;;;;;20.30;12.25;;;;;;;3.79;81.42;98007.06;5092059;28;20126;-81
2023/11/13 06:30:23;;;;;;;28.15;12.15;;;;;;;3.97;80.76;98022.03;5091727;28;20032;-81
2023/11/13 06:32:48;;;;;;;24.00;11.88;;;;;;;3.87;81.19;98022.56;5073910;28;20024;-80
2023/11/13 06:35:17;;;;;;;23.38;12.18;;;;;;;3.84;81.44;98032.78;5091983;28;20032;-81
2023/11/13 06:37:42;;;;;;;22.15;11.35;;;;;;;3.71;81.51;98028.50;5092025;28;20031;-80
2023/11/13 06:40:08;;;;;;;19.05;11.73;;;;;;;3.74;82.17;98020.13;5092110;28;20031;-80
2023/11/13 06:42:34;;;;;;;18.58;11.85;;;;;;;3.88;81.25;98005.72;5075275;28;20028;-80
2023/11/13 06:44:59;;;;;;;19.70;12.10;;;;;;;3.88;81.24;98012.81;5093475;28;20417;-80
2023/11/13 06:47:25;;;;;;;20.33;11.68;;;;;;;3.85;81.94;98016.72;5058825;28;20075;-80
2023/11/13 06:49:50;;;;;;;21.27;12.65;;;;;;;3.90;81.70;98014.22;5091940;28;20043;-80
2023/11/13 06:52:15;;;;;;;18.02;11.07;;;;;;;3.88;81.62;98002.28;5093760;28;20032;-80
2023/11/13 06:54:41;;;;;;;20.58;13.68;;;;;;;3.94;81.91;98006.63;5058558;28;20043;-80
2023/11/13 06:57:07;;;;;;;21.80;12.65;;;;;;;4.03;81.63;98006.09;5092637;28;20067;-80
2023/11/13 06:59:32;;;;;;;20.25;11.48;;;;;;;4.04;81.80;98007.69;5072003;28;20357;-80
2023/11/13 07:01:58;;;;;;;19.05;11.88;;;;;;;4.15;81.69;97996.34;5085700;28;20028;-80
2023/11/13 07:04:24;;;;;;;18.77;11.48;;;;;;;4.14;81.77;97991.28;5068938;28;20025;-80
2023/11/13 07:06:49;;;;;;;27.85;12.50;;;;;;;4.20;81.82;97999.09;5086639;28;20026;-80
2023/11/13 07:09:15;;;;;;;24.83;13.65;;;;;;;4.14;81.34;97986.81;5091383;28;20106;-80
2023/11/13 07:11:44;;;;;;;24.27;13.52;;;;;;;4.17;82.02;97986.34;5074429;28;20034;-80
2023/11/13 07:14:14;;;;;;;27.58;11.98;;;;;;;4.09;81.24;97984.06;5091057;28;20039;-80
2023/11/13 07:16:42;;;;;;;21.42;12.50;;;;;;;4.04;82.41;97991.84;5091063;28;20024;-80
2023/11/13 07:19:08;;;;;;;18.63;10.93;;;;;;;3.99;83.06;97978.53;5092471;28;20623;-80
2023/11/13 07:21:38;;;;;;;19.52;11.88;;;;;;;3.94;83.15;97975.78;5092680;28;20553;-81
2023/11/13 07:24:04;;;;;;;19.08;12.00;;;;;;;4.05;82.98;97975.00;5092611;28;20058;-80
2023/11/13 07:26:30;;;;;;;16.80;11.73;;;;;;;4.07;82.48;97977.38;5074395;28;20089;-80
2023/11/13 07:28:56;;;;;;;21.05;11.82;;;;;;;3.97;83.05;97958.69;5092772;28;20024;-81
2023/11/13 07:31:21;;;;;;;21.38;12.95;;;;;;;4.07;82.93;97980.84;5093163;28;20024;-80
2023/11/13 07:33:47;;;;;;;18.90;11.52;;;;;;;4.02;83.46;97951.66;5091445;28;20031;-80
2023/11/13 07:36:13;;;;;;;19.98;11.90;;;;;;;4.25;82.54;97961.44;5091524;28;20039;-80
2023/11/13 07:38:41;;;;;;;19.40;12.40;;;;;;;3.70;84.85;97959.09;5091384;28;20028;-80
2023/11/13 07:41:11;;;;;;;18.85;12.23;;;;;;;3.80;85.45;97961.97;5058780;28;20020;-80
2023/11/13 07:43:38;;;;;;;21.25;12.52;;;;;;;3.78;85.90;97964.03;5092227;28;20080;-80
2023/11/13 07:46:03;;;;;;;16.20;11.27;;;;;;;3.70;86.59;97963.56;5074000;28;20479;-80
2023/11/13 07:48:29;;;;;;;20.92;12.35;;;;;;;3.65;87.01;97964.22;5073963;28;20122;-80
2023/11/13 07:50:55;;;;;;;23.20;13.23;;;;;;;4.07;84.40;97965.00;5074262;28;20032;-80
2023/11/13 07:53:20;;;;;;;19.88;12.75;;;;;;;3.70;86.63;97971.47;5057223;28;20028;-80
2023/11/13 07:55:46;;;;;;;20.80;12.95;;;;;;;4.25;84.74;97972.81;5073900;28;20138;-81
2023/11/13 07:58:11;;;;;;;21.77;12.50;;;;;;;4.30;83.94;97975.56;5092358;28;20042;-81
2023/11/13 08:00:36;;;;;;;19.00;12.63;;;;;;;4.29;83.64;97954.66;5091931;28;20036;-80
2023/11/13 08:03:04;;;;;;;23.02;13.88;;;;;;;4.33;83.69;97963.75;5090946;28;20031;-80
2023/11/13 08:05:30;;;;;;;17.08;11.63;;;;;;;4.38;83.40;97961.22;5092060;28;20094;-81
2023/11/13 08:07:55;;;;;;;18.65;12.13;;;;;;;4.39;83.86;97960.19;5092069;28;20158;-81
2023/11/13 08:10:21;;;;;;;24.42;13.73;;;;;;;4.58;83.90;97972.25;5090654;28;20031;-80
2023/11/13 08:12:49;;;;;;;20.05;13.73;;;;;;;4.42;83.97;97960.53;5090593;28;20041;-80
2023/11/13 08:15:15;;;;;;;23.42;12.55;;;;;;;4.56;84.16;97961.09;5090812;28;20387;-80
2023/11/13 08:17:46;;;;;;;31.58;19.08;;;;;;;4.20;86.05;97951.56;5090452;28;20028;-80
2023/11/13 08:20:15;;;;;;;25.85;15.00;;;;;;;4.53;84.80;97949.16;5073628;28;20059;-80
2023/11/13 08:22:41;;;;;;;24.10;14.77;;;;;;;4.52;84.45;97952.81;5091871;28;20032;-81
2023/11/13 08:25:11;;;;;;;22.77;14.32;;;;;;;4.63;84.68;97945.13;5090913;28;20397;-80
2023/11/13 08:27:43;;;;;;;30.17;21.35;;;;;;;4.47;85.41;97933.41;5090439;28;20035;-80
2023/11/13 08:30:13;;;;;;;36.13;26.67;;;;;;;4.22;87.84;97925.75;5090676;28;20024;-80
2023/11/13 08:32:39;;;;;;;23.70;15.65;;;;;;;4.48;85.49;97919.16;5090507;28;20017;-80
2023/11/13 08:35:05;;;;;;;25.00;14.32;;;;;;;4.63;84.79;97908.91;5090630;28;20107;-81
2023/11/13 08:37:31;;;;;;;31.52;19.38;;;;;;;4.56;85.82;97929.41;5074141;28;20032;-80
2023/11/13 08:39:56;;;;;;;20.23;15.38;;;;;;;4.58;86.25;97929.97;5073796;28;20020;-80
2023/11/13 08:42:22;;;;;;;26.23;14.18;;;;;;;4.67;85.90;97935.69;5091806;28;20028;-80
2023/11/13 08:44:48;;;;;;;20.00;12.95;;;;;;;4.75;85.12;97937.97;5091243;28;20107;-80
2023/11/13 08:47:15;;;;;;;22.95;13.93;;;;;;;4.87;84.38;97936.88;5090323;28;20423;-80
2023/11/13 08:49:41;;;;;;;19.33;13.32;;;;;;;4.93;84.53;97921.94;5073273;28;20035;-80
2023/11/13 08:52:08;;;;;;;21.45;13.88;;;;;;;4.72;85.63;97912.00;5073898;28;20063;-80
2023/11/13 08:54:35;;;;;;;22.15;12.68;;;;;;;4.84;84.71;97902.19;5073894;28;20024;-80
2023/11/13 08:57:06;;;;;;;19.02;12.05;;;;;;;4.90;85.45;97899.41;5093962;28;20075;-80
2023/11/13 08:59:32;;;;;;;20.83;13.20;;;;;;;5.02;85.03;97910.75;5094836;28;20024;-80
2023/11/13 09:01:58;;;;;;;19.48;13.05;;;;;;;5.01;85.59;97898.56;5093788;28;20027;-80
2023/11/13 09:04:23;;;;;;;24.05;13.77;;;;;;;4.97;86.77;97886.88;5076917;28;20028;-80
2023/11/13 09:06:50;;;;;;;19.63;12.40;;;;;;;5.00;86.19;97886.38;5095060;28;20024;-81
2023/11/13 09:09:16;;;;;;;22.50;11.70;;;;;;;4.95;86.19;97890.78;5077323;28;20054;-80
2023/11/13 09:11:41;;;;;;;17.95;11.55;;;;;;;5.05;85.48;97867.16;5094170;28;20055;-80
2023/11/13 09:14:10;;;;;;;16.85;11.25;;;;;;;5.12;85.09;97866.00;5095017;28;20039;-80
2023/11/13 09:16:39;;;;;;;17.15;11.73;;;;;;;5.13;86.86;97880.03;5093612;28;20096;-80
2023/11/13 09:19:05;;;;;;;16.13;11.65;;;;;;;5.16;85.96;97869.75;5095722;28;20039;-80
2023/11/13 09:21:30;;;;;;;14.52;11.00;;;;;;;5.33;85.37;97875.06;5093559;28;20036;-81
2023/11/13 09:23:56;;;;;;;14.82;10.15;;;;;;;5.25;85.28;97867.53;5093161;28;20024;-80
2023/11/13 09:26:21;;;;;;;17.35;9.95;;;;;;;5.26;85.19;97864.63;5093393;28;20062;-80
2023/11/13 09:28:47;;;;;;;15.57;9.65;;;;;;;5.36;85.74;97882.53;5094877;28;20046;-81
2023/11/13 09:31:12;;;;;;;16.02;10.50;;;;;;;5.12;86.47;97868.63;5093379;28;20028;-80
2023/11/13 09:33:39;;;;;;;15.75;9.90;;;;;;;5.29;85.25;97868.66;5093017;28;20181;-80
2023/11/13 09:36:07;;;;;;;13.13;9.38;;;;;;;5.30;86.21;97862.34;5094645;28;20023;-81
2023/11/13 09:38:32;;;;;;;14.57;9.10;;;;;;;5.32;85.42;97862.91;5076143;28;20118;-81
2023/11/13 09:41:03;;;;;;;13.30;8.38;;;;;;;5.36;85.16;97877.25;5093109;28;20062;-81
2023/11/13 09:43:34;;;;;;;13.82;9.25;;;;;;;5.44;85.12;97871.56;5094310;28;20046;-81
2023/11/13 09:46:08;;;;;;;11.27;8.13;;;;;;;5.36;85.46;97881.72;5093239;28;20028;-81
2023/11/13 09:48:43;;;;;;;14.48;8.90;;;;;;;5.24;86.86;97890.53;5093197;28;20024;-81
2023/11/13 09:51:15;;;;;;;14.75;9.02;;;;;;;5.32;85.58;97868.19;5093146;28;20093;-80
2023/11/13 09:53:43;;;;;;;13.20;9.40;;;;;;;5.27;85.37;97855.66;5093575;28;20028;-81
2023/11/13 09:56:13;;;;;;;13.32;9.20;;;;;;;5.42;84.67;97863.06;5093527;28;20032;-80
2023/11/13 09:58:39;;;;;;;14.85;8.77;;;;;;;5.47;84.92;97841.97;5093500;28;20032;-80
2023/11/13 10:01:06;;;;;;;13.48;8.68;;;;;;;5.47;84.60;97855.22;5093871;28;20036;-81
2023/11/13 10:03:32;;;;;;;13.30;8.85;;;;;;;5.60;84.81;97844.31;5076035;28;20427;-80
2023/11/13 10:05:59;;;;;;;12.90;9.13;;;;;;;5.44;85.34;97845.09;5075824;28;20020;-80
2023/11/13 10:08:24;;;;;;;12.95;9.13;;;;;;;5.57;84.87;97851.94;5094180;28;20405;-81
2023/11/13 10:10:50;;;;;;;13.07;8.98;;;;;;;5.57;86.41;97852.72;5094621;28;20039;-80
2023/11/13 10:13:21;;;;;;;13.75;9.13;;;;;;;5.53;85.23;97846.31;5094106;28;20032;-81
2023/11/13 10:15:47;;;;;;;13.30;10.45;;;;;;;5.59;85.41;97836.63;5077059;28;20073;-81
2023/11/13 10:18:12;;;;;;;9.77;7.80;;;;;;;5.56;85.39;97840.53;5075978;28;20028;-81
2023/11/13 10:20:42;;;;;;;12.00;7.97;;;;;;;5.57;85.20;97830.75;5092967;28;20028;-81
2023/11/13 10:23:08;;;;;;;12.02;7.93;;;;;;;5.42;87.43;97826.00;5093767;28;20441;-80
2023/11/13 10:25:50;;;;;;;10.85;7.60;;;;;;;5.28;88.18;97822.09;5092071;28;20077;-80
2023/11/13 10:28:21;;;;;;;11.88;7.78;;;;;;;5.73;86.43;97833.38;5077358;28;20024;-80
2023/11/13 10:31:00;;;;;;;10.82;7.72;;;;;;;5.48;86.55;97819.78;5092157;28;20020;-80
2023/11/13 10:33:29;;;;;;;11.32;7.38;;;;;;;5.37;88.65;97827.78;5093537;28;20038;-80
2023/11/13 10:36:04;;;;;;;10.88;7.22;;;;;;;5.57;86.88;97817.53;5092605;28;20027;-80
2023/11/13 10:38:43;;;;;;;9.00;6.93;;;;;;;5.58;87.10;97806.69;5094341;28;20035;-80
2023/11/13 10:41:10;;;;;;;8.40;6.57;;;;;;;5.53;87.64;97814.53;5093153;28;20016;-80
2023/11/13 10:43:39;;;;;;;9.38;6.30;;;;;;;5.79;85.55;97811.22;5093197;28;20032;-81
2023/11/13 10:46:06;;;;;;;9.07;6.68;;;;;;;5.80;85.89;97799.59;5092008;28;20023;-81
2023/11/13 10:48:37;;;;;;;10.40;6.72;;;;;;;5.61;86.67;97808.88;5091625;28;20467;-81
2023/11/13 10:51:05;;;;;;;8.55;6.30;;;;;;;5.88;86.57;97801.88;5093466;28;20363;-81
2023/11/13 10:53:35;;;;;;;8.40;6.47;;;;;;;5.62;87.95;97801.69;5091554;28;20035;-81
2023/11/13 10:56:01;;;;;;;13.00;7.82;;;;;;;5.35;90.10;97791.00;5093117;28;20024;-81
2023/11/13 10:58:27;;;;;;;10.93;6.22;;;;;;;5.62;87.63;97770.75;5093602;28;20464;-81
2023/11/13 11:00:56;;;;;;;9.88;7.82;;;;;;;5.48;88.75;97769.50;5092084;28;20060;-81
2023/11/13 11:03:27;;;;;;;8.60;6.18;;;;;;;5.52;89.68;97762.69;5091957;28;20055;-81
2023/11/13 11:05:58;;;;;;;7.63;6.30;;;;;;;5.60;89.17;97759.59;5092112;28;20026;-81
2023/11/13 11:08:24;;;;;;;8.70;6.50;;;;;;;5.70;87.91;97757.09;5075258;28;20035;-82
2023/11/13 11:10:52;;;;;;;8.88;6.40;;;;;;;5.68;87.44;97726.66;5092777;28;20031;-81
2023/11/13 11:13:20;;;;;;;9.50;6.10;;;;;;;5.74;88.09;97737.06;5090989;28;20368;-82
2023/11/13 11:16:04;;;;;;;11.50;6.68;;;;;;;5.67;88.90;97731.13;5092386;28;20032;-82
2023/11/13 11:18:37;;;;;;;8.88;6.43;;;;;;;5.74;89.03;97705.28;5092107;28;20062;-81
2023/11/13 11:21:08;;;;;;;10.25;6.28;;;;;;;5.71;88.57;97708.41;5092293;28;20035;-82
2023/11/13 11:23:42;;;;;;;12.38;7.90;;;;;;;5.40;91.34;97701.09;5092101;28;20035;-81
2023/11/13 11:26:07;;;;;;;10.65;7.50;;;;;;;5.64;89.46;97689.25;5091600;28;20031;-82
2023/11/13 11:28:36;;;;;;;10.38;7.03;;;;;;;5.65;91.08;97684.78;5074040;28;20039;-81